Time;durP1;ratioP1;P1;durP2;ratioP2;P2;SDS_P1;SDS_P2;PMS_P1;PMS_P2;Temp;Humidity;BMP_temperature;BMP_pressure;BME280_temperature;BME280_humidity;BME280_pressure;Samples;Min_cycle;Max_cycle;Signal;HPM_P1;HPM_P2
2023/03/15 00:00:11;;;;;;;21.85;10.13;;;11.90;69.30;;;;;;5073788;28;20036;-78
2023/03/15 00:02:37;;;;;;;30.17;12.25;;;11.90;70.00;;;;;;5073882;28;20078;-80
2023/03/15 00:05:03;;;;;;;33.72;10.93;;;11.90;70.20;;;;;;5059637;28;20029;-78
2023/03/15 00:07:29;;;;;;;27.92;11.10;;;11.90;70.30;;;;;;5055908;28;20021;-78
2023/03/15 00:09:55;;;;;;;32.75;13.52;;;11.90;70.20;;;;;;5055995;28;20041;-80
2023/03/15 00:12:23;;;;;;;30.15;11.23;;;11.80;70.70;;;;;;5055918;28;20067;-80
2023/03/15 00:14:49;;;;;;;25.80;11.70;;;11.80;70.70;;;;;;5055038;28;20044;-78
2023/03/15 00:17:15;;;;;;;40.85;14.50;;;11.80;69.90;;;;;;5055527;28;20021;-78
2023/03/15 00:19:41;;;;;;;39.38;15.32;;;11.80;70.00;;;;;;5054552;28;20066;-79
2023/03/15 00:22:07;;;;;;;49.65;19.83;;;11.80;70.00;;;;;;5054584;28;20021;-78
2023/03/15 00:24:33;;;;;;;38.10;15.27;;;11.80;70.40;;;;;;5054112;28;20490;-79
2023/03/15 00:26:58;;;;;;;29.50;13.73;;;11.80;70.40;;;;;;5053973;28;20116;-80
2023/03/15 00:29:24;;;;;;;32.67;12.30;;;11.70;70.80;;;;;;5053574;28;20087;-78
2023/03/15 00:31:50;;;;;;;31.95;14.50;;;11.70;71.10;;;;;;5055114;28;20447;-80
2023/03/15 00:34:17;;;;;;;33.47;13.82;;;11.70;71.20;;;;;;5053782;28;20222;-79
2023/03/15 00:36:44;;;;;;;34.20;13.25;;;11.60;71.70;;;;;;5053255;28;20033;-79
2023/03/15 00:39:10;;;;;;;36.53;13.90;;;11.60;71.60;;;;;;5053310;28;20029;-80
2023/03/15 00:41:36;;;;;;;39.67;17.20;;;11.60;71.80;;;;;;5054897;28;20523;-79
2023/03/15 00:44:05;;;;;;;35.78;15.32;;;11.60;72.10;;;;;;5054540;28;20029;-79
2023/03/15 00:46:31;;;;;;;29.25;12.75;;;11.50;72.30;;;;;;5054847;28;20032;-80
2023/03/15 00:48:57;;;;;;;27.23;12.25;;;11.50;72.60;;;;;;5054871;28;20367;-78
2023/03/15 00:51:23;;;;;;;36.13;13.73;;;11.50;72.60;;;;;;5053687;28;20031;-79
2023/03/15 00:53:51;;;;;;;26.77;11.80;;;11.50;72.80;;;;;;5055074;28;20056;-79
2023/03/15 00:56:26;;;;;;;28.88;11.13;;;11.40;73.20;;;;;;5054786;28;20056;-78
2023/03/15 00:58:52;;;;;;;22.30;9.68;;;11.40;73.20;;;;;;5054779;28;20490;-78
2023/03/15 01:01:28;;;;;;;23.10;8.93;;;11.40;73.50;;;;;;5054695;28;20040;-77
2023/03/15 01:03:54;;;;;;;19.77;9.25;;;11.40;73.60;;;;;;5053069;28;20430;-78
2023/03/15 01:06:23;;;;;;;24.02;10.20;;;11.40;73.90;;;;;;5053615;28;20017;-76
2023/03/15 01:08:50;;;;;;;17.02;8.75;;;11.20;75.70;;;;;;5053300;28;20116;-79
2023/03/15 01:11:23;;;;;;;19.13;7.95;;;11.10;77.50;;;;;;5053888;28;20074;-78
2023/03/15 01:13:53;;;;;;;17.73;7.95;;;11.00;78.60;;;;;;5054096;28;20043;-77
2023/03/15 01:16:20;;;;;;;15.30;7.50;;;11.00;79.60;;;;;;5053398;28;20033;-77
2023/03/15 01:18:45;;;;;;;18.10;7.60;;;11.00;80.60;;;;;;5053366;28;20036;-78
2023/03/15 01:21:14;;;;;;;18.55;7.75;;;10.90;80.80;;;;;;5053321;28;20029;-78
2023/03/15 01:23:40;;;;;;;18.73;9.00;;;11.00;81.00;;;;;;5047763;28;20029;-80
2023/03/15 01:26:09;;;;;;;20.98;9.05;;;11.00;79.50;;;;;;5054073;28;20029;-80
2023/03/15 01:28:34;;;;;;;25.77;10.13;;;11.00;78.60;;;;;;5053073;28;20025;-79
2023/03/15 01:31:00;;;;;;;22.85;10.20;;;11.00;78.60;;;;;;5053597;28;20021;-80
2023/03/15 01:33:26;;;;;;;26.95;11.73;;;11.10;77.90;;;;;;5053432;28;20028;-79
2023/03/15 01:36:04;;;;;;;21.20;9.93;;;11.10;78.80;;;;;;5053934;28;20367;-83
2023/03/15 01:38:30;;;;;;;26.58;12.15;;;11.10;79.80;;;;;;5053384;28;20033;-80
2023/03/15 01:40:56;;;;;;;28.20;11.88;;;11.00;80.60;;;;;;5052349;28;20028;-77
2023/03/15 01:43:24;;;;;;;25.92;11.00;;;11.00;81.20;;;;;;5053472;28;20021;-78
2023/03/15 01:46:06;;;;;;;35.35;13.85;;;10.90;81.60;;;;;;5053659;28;20451;-77
2023/03/15 01:48:43;;;;;;;33.00;13.40;;;10.90;82.60;;;;;;5053409;28;20052;-80
2023/03/15 01:51:30;;;;;;;27.17;12.95;;;10.90;83.00;;;;;;5054217;28;20075;-78
2023/03/15 01:54:22;;;;;;;31.73;14.13;;;10.80;84.60;;;;;;5052481;28;20028;-77
2023/03/15 01:56:54;;;;;;;25.85;10.23;;;10.70;86.80;;;;;;5033809;28;20028;-80
2023/03/15 01:59:25;;;;;;;23.50;10.80;;;10.70;88.50;;;;;;5053729;28;20170;-79
2023/03/15 02:01:53;;;;;;;23.83;10.73;;;10.70;90.20;;;;;;5052843;28;20025;-78
2023/03/15 02:04:24;;;;;;;27.35;12.27;;;10.70;90.50;;;;;;5054016;28;20025;-79
2023/03/15 02:06:57;;;;;;;27.52;10.80;;;10.70;90.80;;;;;;5032475;28;20021;-79
2023/03/15 02:09:31;;;;;;;25.95;12.00;;;10.70;90.70;;;;;;5032741;28;20033;-78
2023/03/15 02:11:57;;;;;;;25.52;9.98;;;10.70;90.90;;;;;;5032853;28;20024;-78
2023/03/15 02:14:23;;;;;;;24.00;9.35;;;10.80;90.90;;;;;;5033442;28;20029;-79
2023/03/15 02:16:52;;;;;;;29.15;12.65;;;10.80;90.70;;;;;;5034172;28;20035;-78
2023/03/15 02:19:29;;;;;;;26.00;11.20;;;10.90;91.10;;;;;;5051504;28;20128;-79
2023/03/15 02:22:12;;;;;;;16.42;7.78;;;10.90;91.70;;;;;;5051761;28;20029;-77
2023/03/15 02:25:00;;;;;;;18.25;8.60;;;10.90;92.40;;;;;;5052189;28;20021;-80
2023/03/15 02:27:33;;;;;;;20.50;10.02;;;10.90;92.70;;;;;;5051721;28;20479;-78
2023/03/15 02:30:02;;;;;;;22.33;10.15;;;10.90;93.30;;;;;;5051934;28;20033;-79
2023/03/15 02:32:29;;;;;;;24.50;10.82;;;10.80;93.80;;;;;;5051888;28;20025;-80
2023/03/15 02:34:55;;;;;;;31.65;11.77;;;10.80;94.70;;;;;;5053180;28;20448;-79
2023/03/15 02:37:20;;;;;;;23.60;9.07;;;10.70;95.40;;;;;;5052940;28;20032;-77
2023/03/15 02:39:46;;;;;;;22.75;9.15;;;10.70;96.60;;;;;;5051682;28;20506;-77
2023/03/15 02:42:13;;;;;;;23.67;9.98;;;10.60;98.20;;;;;;5051521;28;20064;-79
2023/03/15 02:44:42;;;;;;;20.45;10.27;;;10.60;99.70;;;;;;5051933;28;20055;-79
2023/03/15 02:47:17;;;;;;;28.67;9.80;;;10.50;99.90;;;;;;5053199;28;20024;-80
2023/03/15 02:49:48;;;;;;;12.30;6.70;;;10.40;99.90;;;;;;5052350;28;20049;-80
2023/03/15 02:52:13;;;;;;;11.50;6.15;;;10.50;99.90;;;;;;5051640;28;20034;-81
2023/03/15 02:54:42;;;;;;;11.02;5.90;;;10.50;99.90;;;;;;5053056;28;20451;-79
2023/03/15 02:57:10;;;;;;;11.45;4.80;;;10.50;99.90;;;;;;5046612;28;20029;-76
2023/03/15 02:59:35;;;;;;;12.00;5.25;;;10.50;99.90;;;;;;5051273;28;20033;-78
2023/03/15 03:02:01;;;;;;;19.83;7.82;;;10.50;99.90;;;;;;5053022;28;20519;-80
2023/03/15 03:04:27;;;;;;;21.45;9.52;;;10.40;99.90;;;;;;5052585;28;20062;-79
2023/03/15 03:06:52;;;;;;;14.90;7.68;;;10.40;99.90;;;;;;5052740;28;20021;-78
2023/03/15 03:09:18;;;;;;;14.00;5.97;;;10.40;99.90;;;;;;5051279;28;20036;-79
2023/03/15 03:11:44;;;;;;;12.90;6.13;;;10.30;99.90;;;;;;5051534;28;20451;-77
2023/03/15 03:14:12;;;;;;;14.90;6.38;;;10.30;99.90;;;;;;5052507;28;20107;-77
2023/03/15 03:16:39;;;;;;;11.85;4.93;;;10.30;99.90;;;;;;5051253;28;20036;-79
2023/03/15 03:19:04;;;;;;;10.43;4.97;;;10.30;99.90;;;;;;5051267;28;20060;-77
2023/03/15 03:21:30;;;;;;;10.65;5.03;;;10.30;99.90;;;;;;5052424;28;20025;-77
2023/03/15 03:23:56;;;;;;;9.68;4.30;;;10.20;99.90;;;;;;5052421;28;20100;-80
2023/03/15 03:26:26;;;;;;;10.38;5.55;;;10.20;99.90;;;;;;5052207;28;20040;-76
2023/03/15 03:28:52;;;;;;;9.32;4.68;;;10.20;99.90;;;;;;5055130;28;20050;-78
2023/03/15 03:31:24;;;;;;;9.85;4.65;;;10.20;99.90;;;;;;5054422;28;20079;-77
2023/03/15 03:33:50;;;;;;;7.78;4.30;;;10.20;99.90;;;;;;5069584;28;20116;-77
2023/03/15 03:36:16;;;;;;;11.18;4.65;;;10.20;99.90;;;;;;5052725;28;20108;-77
2023/03/15 03:38:45;;;;;;;12.27;4.30;;;10.20;99.90;;;;;;5055737;28;20078;-78
2023/03/15 03:41:12;;;;;;;6.95;3.80;;;10.20;99.90;;;;;;5056508;28;20063;-77
2023/03/15 03:43:38;;;;;;;11.82;4.75;;;10.20;99.90;;;;;;5055126;28;20037;-78
2023/03/15 03:46:04;;;;;;;13.68;7.15;;;10.10;99.90;;;;;;5056393;28;20039;-77
2023/03/15 03:48:30;;;;;;;17.00;8.35;;;10.20;99.90;;;;;;5056572;28;20064;-78
2023/03/15 03:50:57;;;;;;;12.25;6.13;;;10.10;99.90;;;;;;5056162;28;20029;-77
2023/03/15 03:53:23;;;;;;;17.58;8.00;;;10.10;99.90;;;;;;5054841;28;20028;-77
2023/03/15 03:55:49;;;;;;;14.73;6.43;;;10.10;99.90;;;;;;5055756;28;20020;-77
2023/03/15 03:58:15;;;;;;;14.93;5.65;;;10.10;99.90;;;;;;5055135;28;20451;-78
2023/03/15 04:00:40;;;;;;;14.88;6.85;;;10.00;99.90;;;;;;5055540;28;20021;-77
2023/03/15 04:03:07;;;;;;;13.77;5.63;;;10.00;99.90;;;;;;5054475;28;20032;-76
2023/03/15 04:05:33;;;;;;;9.77;4.60;;;10.00;99.90;;;;;;5055150;28;20043;-78
2023/03/15 04:07:59;;;;;;;10.25;4.45;;;10.00;99.90;;;;;;5054258;28;20032;-78
2023/03/15 04:10:28;;;;;;;11.15;4.93;;;10.00;99.90;;;;;;5054198;28;20025;-76
2023/03/15 04:12:55;;;;;;;9.50;4.97;;;10.00;99.90;;;;;;5053820;28;20032;-79
2023/03/15 04:15:21;;;;;;;16.55;6.63;;;10.00;99.90;;;;;;5054188;28;20035;-78
2023/03/15 04:17:48;;;;;;;14.77;7.68;;;10.00;99.90;;;;;;5054788;28;20016;-77
2023/03/15 04:20:16;;;;;;;20.98;8.77;;;10.00;99.90;;;;;;5054628;28;20028;-79
2023/03/15 04:22:48;;;;;;;17.13;7.15;;;10.00;99.90;;;;;;5055347;28;20074;-78
2023/03/15 04:25:17;;;;;;;;;;;10.00;99.90;;;;;;5055414;28;20375;-77
2023/03/15 04:27:42;;;;;;;17.10;8.98;;;10.00;99.90;;;;;;5054772;28;20003;-78
2023/03/15 04:30:09;;;;;;;35.05;16.35;;;10.00;99.90;;;;;;5053972;28;20063;-77
2023/03/15 04:32:35;;;;;;;16.00;7.85;;;10.00;99.90;;;;;;5047022;28;20025;-81
2023/03/15 04:35:01;;;;;;;20.60;8.52;;;9.90;99.90;;;;;;5053374;28;20029;-78
2023/03/15 04:37:28;;;;;;;12.20;5.55;;;9.90;99.90;;;;;;5054949;28;20025;-81
2023/03/15 04:39:53;;;;;;;9.95;4.90;;;9.90;99.90;;;;;;5054722;28;20036;-79
2023/03/15 04:42:19;;;;;;;15.60;7.18;;;9.90;99.90;;;;;;5054261;28;20021;-78
2023/03/15 04:44:45;;;;;;;8.75;4.65;;;9.80;99.90;;;;;;5054793;28;20033;-77
2023/03/15 04:47:11;;;;;;;8.93;3.53;;;9.80;99.90;;;;;;5053873;28;20078;-78
2023/03/15 04:49:37;;;;;;;10.85;3.53;;;9.80;99.90;;;;;;5053766;28;20025;-78
2023/03/15 04:52:03;;;;;;;7.70;3.67;;;9.80;99.90;;;;;;5054839;28;20336;-79
2023/03/15 04:54:29;;;;;;;6.57;3.60;;;9.70;99.90;;;;;;5053943;28;20376;-77
2023/03/15 04:56:55;;;;;;;8.52;3.90;;;9.70;99.90;;;;;;5054434;28;20031;-78
2023/03/15 04:59:20;;;;;;;8.07;3.90;;;9.70;99.90;;;;;;5054607;28;20055;-77
2023/03/15 05:01:46;;;;;;;8.25;3.63;;;9.70;99.90;;;;;;5054255;28;20025;-77
2023/03/15 05:04:12;;;;;;;7.70;3.97;;;9.70;99.90;;;;;;5054256;28;20032;-76
2023/03/15 05:06:38;;;;;;;8.15;3.75;;;9.70;99.90;;;;;;5053252;28;20025;-77
2023/03/15 05:09:04;;;;;;;12.07;5.25;;;9.70;99.90;;;;;;5053654;28;20463;-79
2023/03/15 05:11:30;;;;;;;9.15;4.50;;;9.60;99.90;;;;;;5054199;28;20025;-80
2023/03/15 05:13:55;;;;;;;12.57;5.78;;;9.60;99.90;;;;;;5054093;28;20471;-78
2023/03/15 05:16:21;;;;;;;8.05;3.90;;;9.60;99.90;;;;;;5053941;28;20021;-77
2023/03/15 05:18:47;;;;;;;14.52;5.80;;;9.70;99.90;;;;;;5053481;28;20045;-80
2023/03/15 05:21:13;;;;;;;17.65;8.95;;;9.60;99.90;;;;;;5054333;28;20025;-79
2023/03/15 05:23:39;;;;;;;24.15;10.38;;;9.70;99.90;;;;;;5053729;28;20062;-78
2023/03/15 05:26:05;;;;;;;21.45;9.07;;;9.60;99.90;;;;;;5052694;28;20028;-78
2023/03/15 05:28:30;;;;;;;29.35;10.13;;;9.60;99.90;;;;;;5052652;28;20384;-78
2023/03/15 05:30:56;;;;;;;26.02;10.45;;;9.50;99.90;;;;;;5053643;28;20021;-79
2023/03/15 05:33:23;;;;;;;32.78;11.05;;;9.60;99.90;;;;;;5053979;28;20029;-79
2023/03/15 05:35:51;;;;;;;14.77;7.50;;;9.60;99.90;;;;;;5054173;28;20367;-78
2023/03/15 05:38:17;;;;;;;14.38;7.40;;;9.60;99.90;;;;;;5052197;28;20027;-79
2023/03/15 05:40:44;;;;;;;17.85;7.65;;;9.60;99.90;;;;;;5053287;28;20017;-79
2023/03/15 05:43:10;;;;;;;22.17;10.60;;;9.60;99.90;;;;;;5053333;28;20045;-78
2023/03/15 05:45:37;;;;;;;18.80;10.65;;;9.60;99.90;;;;;;5053329;28;20024;-79
2023/03/15 05:48:03;;;;;;;17.95;9.60;;;9.70;99.90;;;;;;5065995;28;20039;-78
2023/03/15 05:50:30;;;;;;;29.10;13.57;;;9.70;99.90;;;;;;5061290;28;20140;-76
2023/03/15 05:52:56;;;;;;;26.73;12.30;;;9.70;99.90;;;;;;5053931;28;20024;-79
2023/03/15 05:55:23;;;;;;;34.65;11.98;;;9.70;99.90;;;;;;5053813;28;20455;-76
2023/03/15 05:57:49;;;;;;;38.95;14.60;;;9.70;99.90;;;;;;5053624;28;20028;-77
2023/03/15 06:00:16;;;;;;;40.85;16.80;;;9.70;99.90;;;;;;5053236;28;20124;-77
2023/03/15 06:02:43;;;;;;;44.88;21.65;;;9.60;99.90;;;;;;5052336;28;20082;-78
2023/03/15 06:05:09;;;;;;;142.57;51.70;;;9.60;99.90;;;;;;5051807;28;20131;-78
2023/03/15 06:07:35;;;;;;;46.85;20.20;;;9.60;99.90;;;;;;5053548;28;20028;-78
2023/03/15 06:10:02;;;;;;;34.15;14.32;;;9.60;99.90;;;;;;5053601;28;20048;-76
2023/03/15 06:12:27;;;;;;;33.00;12.30;;;9.50;99.90;;;;;;5053354;28;20021;-80
2023/03/15 06:14:53;;;;;;;19.23;9.68;;;9.50;99.90;;;;;;5053723;28;20025;-77
2023/03/15 06:17:19;;;;;;;22.83;7.82;;;9.50;99.90;;;;;;5052810;28;20028;-76
2023/03/15 06:19:44;;;;;;;16.05;7.72;;;9.50;99.90;;;;;;5051089;28;20041;-78
2023/03/15 06:22:10;;;;;;;14.82;7.22;;;9.50;99.90;;;;;;5052142;28;20112;-77
2023/03/15 06:24:36;;;;;;;19.35;7.28;;;9.50;99.90;;;;;;5052774;28;20025;-76
2023/03/15 06:27:01;;;;;;;17.65;6.47;;;9.50;99.90;;;;;;5052851;28;20024;-76
2023/03/15 06:29:27;;;;;;;10.93;6.13;;;9.50;99.90;;;;;;5053714;28;20433;-76
2023/03/15 06:31:53;;;;;;;12.43;5.75;;;9.50;99.90;;;;;;5052438;28;20017;-76
2023/03/15 06:34:20;;;;;;;26.08;10.27;;;9.50;99.90;;;;;;5053326;28;20013;-75
2023/03/15 06:36:46;;;;;;;16.50;9.00;;;9.60;99.90;;;;;;5053750;28;20044;-77
2023/03/15 06:39:12;;;;;;;10.75;5.53;;;9.50;99.90;;;;;;5053310;28;20078;-78
2023/03/15 06:41:38;;;;;;;16.27;5.00;;;9.50;99.90;;;;;;5052566;28;20025;-77
2023/03/15 06:44:04;;;;;;;10.82;5.25;;;9.50;99.90;;;;;;5053216;28;20028;-79
2023/03/15 06:46:30;;;;;;;16.25;6.15;;;9.60;99.90;;;;;;5053523;28;20029;-76
2023/03/15 06:48:56;;;;;;;10.15;5.57;;;9.70;99.90;;;;;;5052336;28;20028;-75
2023/03/15 06:51:22;;;;;;;12.10;6.57;;;9.70;99.90;;;;;;5053357;28;20024;-77
2023/03/15 06:53:47;;;;;;;19.13;8.48;;;9.70;99.90;;;;;;5052966;28;20087;-77
2023/03/15 06:56:13;;;;;;;14.00;6.57;;;9.70;99.90;;;;;;5053790;28;20104;-78
2023/03/15 06:58:39;;;;;;;24.73;7.07;;;9.70;99.90;;;;;;5052104;28;20032;-76
2023/03/15 07:01:05;;;;;;;18.08;7.10;;;9.80;99.90;;;;;;5052527;28;20028;-76
2023/03/15 07:03:30;;;;;;;11.82;6.72;;;9.80;99.90;;;;;;5057463;28;20055;-77
2023/03/15 07:05:56;;;;;;;11.07;6.03;;;9.70;99.90;;;;;;5057103;28;20017;-78
2023/03/15 07:08:23;;;;;;;18.58;7.55;;;9.80;99.90;;;;;;5056908;28;20028;-78
2023/03/15 07:10:50;;;;;;;17.13;7.72;;;9.80;99.90;;;;;;5057233;28;20017;-77
2023/03/15 07:13:17;;;;;;;17.40;6.80;;;9.80;99.90;;;;;;5057184;28;20030;-77
2023/03/15 07:15:43;;;;;;;27.75;9.35;;;9.80;99.90;;;;;;5057045;28;20021;-77
2023/03/15 07:18:09;;;;;;;24.55;11.85;;;9.80;99.90;;;;;;5056886;28;20350;-77
2023/03/15 07:20:34;;;;;;;29.63;9.73;;;9.80;99.90;;;;;;5056992;28;20430;-76
2023/03/15 07:23:00;;;;;;;24.05;12.27;;;9.80;99.90;;;;;;5056429;28;20021;-78
2023/03/15 07:25:26;;;;;;;29.20;15.88;;;9.70;99.90;;;;;;5056940;28;20017;-77
2023/03/15 07:27:52;;;;;;;63.28;24.08;;;9.70;99.90;;;;;;5055560;28;20021;-76
2023/03/15 07:30:19;;;;;;;65.93;27.30;;;9.70;99.90;;;;;;5056537;28;20108;-76
2023/03/15 07:32:45;;;;;;;30.02;14.15;;;9.70;99.90;;;;;;5056492;28;20013;-76
2023/03/15 07:35:11;;;;;;;37.95;13.38;;;9.70;99.90;;;;;;5056427;28;20017;-77
2023/03/15 07:37:37;;;;;;;29.98;12.50;;;9.70;99.90;;;;;;5056421;28;20013;-76
2023/03/15 07:40:08;;;;;;;20.20;10.30;;;9.70;99.90;;;;;;5056608;28;20108;-77
2023/03/15 07:42:38;;;;;;;24.65;9.93;;;9.70;99.90;;;;;;5055974;28;20351;-77
2023/03/15 07:45:05;;;;;;;24.13;9.75;;;9.70;99.90;;;;;;5056216;28;20408;-77
2023/03/15 07:47:31;;;;;;;24.88;7.97;;;9.80;99.90;;;;;;5056318;28;20017;-77
2023/03/15 07:49:57;;;;;;;16.88;6.55;;;9.70;99.90;;;;;;5055720;28;20028;-77
2023/03/15 07:52:23;;;;;;;29.33;10.15;;;9.80;99.90;;;;;;5056334;28;20024;-77
2023/03/15 07:54:49;;;;;;;25.85;9.15;;;9.80;99.90;;;;;;5055214;28;20064;-76
2023/03/15 07:57:14;;;;;;;24.58;10.25;;;9.90;99.90;;;;;;5056022;28;20053;-76
2023/03/15 07:59:40;;;;;;;22.95;8.93;;;9.90;99.90;;;;;;5054927;28;20353;-77
2023/03/15 08:02:06;;;;;;;26.35;10.85;;;9.90;99.90;;;;;;5054276;28;20028;-77
2023/03/15 08:04:31;;;;;;;17.73;7.70;;;10.00;99.90;;;;;;5055397;28;20025;-75
2023/03/15 08:06:57;;;;;;;21.85;10.18;;;10.00;99.90;;;;;;5054785;28;20024;-76
2023/03/15 08:09:23;;;;;;;25.88;14.18;;;10.00;99.90;;;;;;5055810;28;20025;-77
2023/03/15 08:11:49;;;;;;;25.92;10.32;;;9.90;99.90;;;;;;5055421;28;20044;-76
2023/03/15 08:14:15;;;;;;;17.83;8.27;;;9.90;99.90;;;;;;5055702;28;20019;-77
2023/03/15 08:16:41;;;;;;;23.15;9.85;;;9.90;99.90;;;;;;5055953;28;20430;-77
2023/03/15 08:19:08;;;;;;;14.60;7.18;;;9.90;99.90;;;;;;5055066;28;20041;-77
2023/03/15 08:21:33;;;;;;;17.80;8.88;;;9.90;99.90;;;;;;5055889;28;20497;-77
2023/03/15 08:23:59;;;;;;;15.13;8.10;;;9.90;99.90;;;;;;5055845;28;20025;-76
2023/03/15 08:26:25;;;;;;;14.05;7.13;;;9.90;99.90;;;;;;5054190;28;20032;-78
2023/03/15 08:28:51;;;;;;;31.95;10.02;;;9.90;99.90;;;;;;5055860;28;20025;-76
2023/03/15 08:31:17;;;;;;;15.07;7.72;;;9.90;99.90;;;;;;5055592;28;20443;-78
2023/03/15 08:33:43;;;;;;;14.63;9.00;;;9.90;99.90;;;;;;5055691;28;20044;-77
2023/03/15 08:36:08;;;;;;;18.20;8.45;;;9.70;99.90;;;;;;5055486;28;20025;-78
2023/03/15 08:38:34;;;;;;;18.13;9.45;;;9.80;99.90;;;;;;5055148;28;20032;-78
2023/03/15 08:41:02;;;;;;;19.42;9.23;;;9.80;99.90;;;;;;5055535;28;20017;-76
2023/03/15 08:43:28;;;;;;;12.43;7.80;;;9.80;99.90;;;;;;5055459;28;20025;-77
2023/03/15 08:45:53;;;;;;;21.83;10.07;;;9.70;99.90;;;;;;5055134;28;20171;-77
2023/03/15 08:48:19;;;;;;;18.90;9.63;;;9.80;99.90;;;;;;5055104;28;20044;-78
2023/03/15 08:50:45;;;;;;;26.77;13.18;;;9.70;99.90;;;;;;5055300;28;20021;-75
2023/03/15 08:53:11;;;;;;;23.70;11.75;;;9.70;99.90;;;;;;5054698;28;20092;-77
2023/03/15 08:55:37;;;;;;;10.43;6.07;;;9.60;99.90;;;;;;5055262;28;20033;-77
2023/03/15 08:58:04;;;;;;;14.32;7.20;;;9.50;99.90;;;;;;5053934;28;20029;-78
2023/03/15 09:00:30;;;;;;;14.60;6.97;;;9.50;99.90;;;;;;5054768;28;20021;-77
2023/03/15 09:02:56;;;;;;;145.80;52.47;;;9.50;99.90;;;;;;5053790;28;20431;-77
2023/03/15 09:05:24;;;;;;;44.65;24.50;;;9.50;99.90;;;;;;5053698;28;20021;-76
2023/03/15 09:07:51;;;;;;;41.38;21.52;;;9.60;99.90;;;;;;5054313;28;20021;-76
2023/03/15 09:10:18;;;;;;;29.55;15.05;;;9.60;99.90;;;;;;5054580;28;20444;-77
2023/03/15 09:12:51;;;;;;;17.13;8.68;;;9.60;99.90;;;;;;5053723;28;20410;-76
2023/03/15 09:15:17;;;;;;;29.25;10.30;;;9.50;99.90;;;;;;5054492;28;20021;-76
2023/03/15 09:17:43;;;;;;;30.83;13.70;;;9.50;99.90;;;;;;5054478;28;20020;-77
2023/03/15 09:20:15;;;;;;;24.98;12.77;;;9.50;99.90;;;;;;5054544;28;20047;-76
2023/03/15 09:22:42;;;;;;;22.95;12.32;;;9.40;99.90;;;;;;5054852;28;20077;-77
2023/03/15 09:25:08;;;;;;;53.55;23.65;;;9.50;99.90;;;;;;5053581;28;20462;-76
2023/03/15 09:27:35;;;;;;;35.13;17.15;;;9.50;99.90;;;;;;5054287;28;20017;-77
2023/03/15 09:30:01;;;;;;;30.95;13.75;;;9.50;99.90;;;;;;5054856;28;20029;-76
2023/03/15 09:32:26;;;;;;;20.10;10.30;;;9.50;99.90;;;;;;5054627;28;20036;-77
2023/03/15 09:34:53;;;;;;;30.10;15.07;;;9.40;99.90;;;;;;5054191;28;20021;-78
2023/03/15 09:37:20;;;;;;;17.77;10.60;;;9.30;99.90;;;;;;5054479;28;20028;-77
2023/03/15 09:39:46;;;;;;;47.85;21.52;;;9.20;99.90;;;;;;5054031;28;20025;-77
2023/03/15 09:42:20;;;;;;;29.05;14.05;;;9.20;99.90;;;;;;5053741;28;20081;-78
2023/03/15 09:44:47;;;;;;;61.70;28.25;;;9.00;99.90;;;;;;5054697;28;20045;-77
2023/03/15 09:47:21;;;;;;;20.27;10.70;;;9.00;99.90;;;;;;5053047;28;20025;-77
2023/03/15 09:50:02;;;;;;;63.50;30.30;;;8.90;99.90;;;;;;5053841;28;20079;-76
2023/03/15 09:52:44;;;;;;;115.32;52.50;;;8.90;99.90;;;;;;5052880;28;20029;-76
2023/03/15 09:55:14;;;;;;;116.13;54.20;;;8.90;99.90;;;;;;5052620;28;20031;-77
2023/03/15 09:57:59;;;;;;;99.70;45.75;;;8.90;99.90;;;;;;5054188;28;20075;-77
2023/03/15 10:00:31;;;;;;;48.70;23.67;;;8.90;99.90;;;;;;5053086;28;20472;-76
2023/03/15 10:03:00;;;;;;;62.55;33.72;;;8.80;99.90;;;;;;5052264;28;20013;-76
2023/03/15 10:05:52;;;;;;;41.75;22.90;;;8.70;99.90;;;;;;5054116;28;20028;-74
2023/03/15 10:08:19;;;;;;;19.50;10.23;;;8.60;99.90;;;;;;5053976;28;20029;-77
2023/03/15 10:11:08;;;;;;;29.52;12.32;;;8.60;99.90;;;;;;5053891;28;20363;-78
2023/03/15 10:13:54;;;;;;;30.23;10.65;;;8.50;99.90;;;;;;5052666;28;20020;-78
2023/03/15 10:16:27;;;;;;;18.88;10.20;;;8.50;99.90;;;;;;5053444;28;20100;-78
2023/03/15 10:19:05;;;;;;;22.30;11.95;;;8.50;99.90;;;;;;5053265;28;20186;-77
2023/03/15 10:21:31;;;;;;;28.25;12.98;;;8.50;99.90;;;;;;5053749;28;20055;-77
2023/03/15 10:23:59;;;;;;;22.27;11.13;;;8.50;99.90;;;;;;5052675;28;20075;-78
2023/03/15 10:26:31;;;;;;;28.85;15.38;;;8.50;99.90;;;;;;5052652;28;20439;-79
2023/03/15 10:28:57;;;;;;;43.22;18.20;;;8.50;99.90;;;;;;5052078;28;20043;-78
2023/03/15 10:31:35;;;;;;;38.15;16.75;;;8.50;99.90;;;;;;5052502;28;20048;-78
2023/03/15 10:34:02;;;;;;;33.88;12.57;;;8.50;99.90;;;;;;5053866;28;20052;-75
2023/03/15 10:36:27;;;;;;;31.73;13.45;;;8.50;99.90;;;;;;5056652;28;20024;-78
2023/03/15 10:38:53;;;;;;;28.65;10.63;;;8.50;99.90;;;;;;5057041;28;20033;-77
2023/03/15 10:41:41;;;;;;;24.20;10.48;;;8.40;99.90;;;;;;5055623;28;20055;-78
2023/03/15 10:44:20;;;;;;;25.38;9.73;;;8.40;99.90;;;;;;5057339;28;20162;-77
2023/03/15 10:47:08;;;;;;;22.20;9.88;;;8.30;99.90;;;;;;5057118;28;20017;-77
2023/03/15 10:49:39;;;;;;;18.35;8.05;;;8.20;99.90;;;;;;5057762;28;20025;-78
2023/03/15 10:52:23;;;;;;;48.13;10.27;;;8.20;99.90;;;;;;5055326;28;20027;-77
2023/03/15 10:54:51;;;;;;;34.90;7.57;;;8.10;99.90;;;;;;5048849;28;20032;-78
2023/03/15 10:57:20;;;;;;;49.92;18.83;;;8.00;99.90;;;;;;5055804;28;20016;-77
2023/03/15 11:00:16;;;;;;;37.60;18.45;;;8.00;99.90;;;;;;5055830;28;20036;-76
2023/03/15 11:02:59;;;;;;;40.25;20.55;;;8.00;99.90;;;;;;5054753;28;20021;-76
2023/03/15 11:05:30;;;;;;;30.00;15.70;;;7.90;99.90;;;;;;5055659;28;20452;-76
2023/03/15 11:08:00;;;;;;;61.03;28.05;;;7.80;99.90;;;;;;5057102;28;20028;-76
2023/03/15 11:10:28;;;;;;;51.78;27.10;;;7.70;99.90;;;;;;5055025;28;20029;-76
2023/03/15 11:13:23;;;;;;;63.28;31.33;;;7.80;99.90;;;;;;5056649;28;20360;-76
2023/03/15 11:15:54;;;;;;;28.75;13.55;;;7.70;99.90;;;;;;5057188;28;20443;-76
2023/03/15 11:18:28;;;;;;;21.17;12.32;;;7.60;99.90;;;;;;5057014;28;20051;-77
2023/03/15 11:20:55;;;;;;;76.45;31.55;;;7.50;99.90;;;;;;5056595;28;20076;-77
2023/03/15 11:23:25;;;;;;;83.88;32.28;;;7.50;99.90;;;;;;5056460;28;20044;-78
2023/03/15 11:25:53;;;;;;;80.65;30.63;;;7.40;99.90;;;;;;5056798;28;20032;-78
2023/03/15 11:28:24;;;;;;;16.58;8.02;;;7.40;99.90;;;;;;5055606;28;20029;-78
2023/03/15 11:30:50;;;;;;;24.23;10.00;;;7.40;99.90;;;;;;5055410;28;20029;-77
2023/03/15 11:33:28;;;;;;;71.75;29.15;;;7.40;99.90;;;;;;5055204;28;20025;-78
2023/03/15 11:35:56;;;;;;;95.22;39.78;;;7.40;99.90;;;;;;5056675;28;20029;-78
2023/03/15 11:38:34;;;;;;;96.68;41.30;;;7.40;99.90;;;;;;5055137;28;20021;-78
2023/03/15 11:41:09;;;;;;;56.42;25.88;;;7.50;99.90;;;;;;5056070;28;20029;-79
2023/03/15 11:43:47;;;;;;;31.05;15.18;;;7.40;99.90;;;;;;5056801;28;20021;-77
2023/03/15 11:46:41;;;;;;;28.35;12.95;;;7.30;99.90;;;;;;5055332;28;20025;-77
2023/03/15 11:49:18;;;;;;;24.05;10.27;;;7.20;99.90;;;;;;5054241;28;20352;-76
2023/03/15 11:51:44;;;;;;;30.45;11.38;;;7.00;99.90;;;;;;5056387;28;20086;-78
2023/03/15 11:54:18;;;;;;;16.35;6.05;;;7.00;99.90;;;;;;5056374;28;20036;-76
2023/03/15 11:56:47;;;;;;;24.00;10.07;;;6.90;99.90;;;;;;5056099;28;20454;-76
2023/03/15 11:59:20;;;;;;;42.25;15.95;;;6.80;99.90;;;;;;5055948;28;20092;-76
2023/03/15 12:02:08;;;;;;;89.18;30.83;;;6.80;99.90;;;;;;5054673;28;20440;-77
2023/03/15 12:04:34;;;;;;;77.47;28.73;;;6.70;99.90;;;;;;5045258;28;20037;-76
2023/03/15 12:07:02;;;;;;;89.28;33.08;;;6.70;99.90;;;;;;5056489;28;20075;-78
2023/03/15 12:09:30;;;;;;;73.70;29.60;;;6.60;99.90;;;;;;5055645;28;20049;-76
2023/03/15 12:12:18;;;;;;;45.80;19.30;;;6.50;99.90;;;;;;5056163;28;20029;-77
2023/03/15 12:14:44;;;;;;;40.85;17.42;;;6.40;99.90;;;;;;5055746;28;20027;-76
2023/03/15 12:17:27;;;;;;;37.25;15.38;;;6.40;99.90;;;;;;5055967;28;20050;-77
2023/03/15 12:20:18;;;;;;;37.47;14.82;;;6.40;99.90;;;;;;5056092;28;20127;-79
2023/03/15 12:22:51;;;;;;;25.37;10.70;;;6.30;99.90;;;;;;5053076;28;20367;-76
2023/03/15 12:25:20;;;;;;;48.78;19.40;;;6.30;99.90;;;;;;5055827;28;20021;-76
2023/03/15 12:27:55;;;;;;;35.08;16.30;;;6.20;99.90;;;;;;5055828;28;20024;-76
2023/03/15 12:30:32;;;;;;;85.55;39.78;;;6.20;99.90;;;;;;5055450;28;20103;-77
2023/03/15 12:33:00;;;;;;;39.88;19.23;;;6.20;99.90;;;;;;5054853;28;20398;-77
2023/03/15 12:35:40;;;;;;;40.17;19.08;;;6.10;99.90;;;;;;5056067;28;20025;-77
2023/03/15 12:38:17;;;;;;;34.63;17.35;;;6.10;99.90;;;;;;5054093;28;20024;-76
2023/03/15 12:40:53;;;;;;;41.35;17.83;;;6.10;99.90;;;;;;5055566;28;20041;-75
2023/03/15 12:43:37;;;;;;;60.42;27.83;;;6.00;99.90;;;;;;5053877;28;20024;-76
2023/03/15 12:46:05;;;;;;;58.25;26.83;;;6.10;99.90;;;;;;5055126;28;20025;-79